createdAt,value
2022-11-29T00:02:20.915Z,93.83
2022-11-29T00:04:48.707Z,94.33
2022-11-29T00:07:16.553Z,94.34
2022-11-29T00:09:45.723Z,94.12
2022-11-29T00:12:13.514Z,95.72
2022-11-29T00:14:41.636Z,95.67
2022-11-29T00:17:09.705Z,98.83
2022-11-29T00:19:38.155Z,99.19
2022-11-29T00:22:06.217Z,99.18
2022-11-29T00:24:34.594Z,99.80
2022-11-29T00:27:03.983Z,100.00
2022-11-29T00:29:31.859Z,100.00
2022-11-29T00:31:59.980Z,100.00
2022-11-29T00:34:27.759Z,100.00
2022-11-29T00:36:55.445Z,100.00
2022-11-29T00:39:23.276Z,100.00
2022-11-29T00:41:51.064Z,100.00
2022-11-29T00:44:20.821Z,99.88
2022-11-29T00:46:49.762Z,98.36
2022-11-29T00:49:17.940Z,99.05
2022-11-29T00:51:45.823Z,99.08
2022-11-29T00:54:13.632Z,97.71
2022-11-29T00:56:41.424Z,99.58
2022-11-29T00:59:09.168Z,100.00
2022-11-29T01:01:38.267Z,100.00
2022-11-29T01:04:06.276Z,100.00
2022-11-29T01:06:34.118Z,99.36
2022-11-29T01:09:01.874Z,100.00
2022-11-29T01:11:30.123Z,100.00
2022-11-29T01:14:00.516Z,100.00
2022-11-29T01:16:29.992Z,100.00
2022-11-29T01:18:59.177Z,100.00
2022-11-29T01:21:27.194Z,99.79
2022-11-29T01:23:55.804Z,100.00
2022-11-29T01:26:26.352Z,100.00
2022-11-29T01:28:56.168Z,100.00
2022-11-29T01:31:26.185Z,100.00
2022-11-29T01:33:55.102Z,99.81
2022-11-29T01:36:24.872Z,99.98
2022-11-29T01:38:52.959Z,100.00
2022-11-29T01:41:22.855Z,98.54
2022-11-29T01:43:56.362Z,99.59
2022-11-29T01:46:23.940Z,95.61
2022-11-29T01:48:55.686Z,97.04
2022-11-29T01:51:25.999Z,97.87
2022-11-29T01:53:54.693Z,98.06
2022-11-29T01:56:22.907Z,97.49
2022-11-29T01:58:50.740Z,97.79
2022-11-29T02:01:18.732Z,98.02
2022-11-29T02:03:46.528Z,98.24
2022-11-29T02:06:15.171Z,97.15
2022-11-29T02:08:44.790Z,97.98
2022-11-29T02:11:57.487Z,96.33
2022-11-29T02:14:37.867Z,96.02
2022-11-29T02:17:20.373Z,94.61
2022-11-29T02:20:10.188Z,96.20
2022-11-29T02:22:43.417Z,98.05
2022-11-29T02:25:32.401Z,97.13
2022-11-29T02:28:39.050Z,98.00
2022-11-29T02:31:34.307Z,98.59
2022-11-29T02:34:21.812Z,99.02
2022-11-29T02:37:11.267Z,98.66
2022-11-29T02:40:01.821Z,99.49
2022-11-29T02:43:05.374Z,99.14
2022-11-29T02:45:45.215Z,100.00
2022-11-29T02:48:28.927Z,100.00
2022-11-29T02:51:02.656Z,100.00
2022-11-29T02:53:37.237Z,100.00
2022-11-29T02:56:14.672Z,100.00
2022-11-29T02:58:51.009Z,100.00
2022-11-29T03:01:25.985Z,100.00
2022-11-29T03:04:02.348Z,100.00
2022-11-29T03:06:39.716Z,100.00
2022-11-29T03:09:15.263Z,100.00
2022-11-29T03:11:49.557Z,100.00
2022-11-29T03:14:25.227Z,100.00
2022-11-29T03:17:02.968Z,100.00
2022-11-29T03:19:41.201Z,100.00
2022-11-29T03:22:18.429Z,100.00
2022-11-29T03:24:53.308Z,100.00
2022-11-29T03:27:28.340Z,100.00
2022-11-29T03:30:00.636Z,100.00
2022-11-29T03:32:34.644Z,100.00
2022-11-29T03:35:07.919Z,100.00
2022-11-29T03:37:46.627Z,100.00
2022-11-29T03:40:18.955Z,100.00
2022-11-29T03:42:54.158Z,100.00
2022-11-29T03:45:26.769Z,100.00
2022-11-29T03:48:00.721Z,100.00
2022-11-29T03:50:34.408Z,100.00
2022-11-29T03:53:09.089Z,100.00
2022-11-29T03:55:50.491Z,100.00
2022-11-29T03:58:47.476Z,100.00
2022-11-29T04:01:44.692Z,100.00
2022-11-29T04:04:47.745Z,100.00
2022-11-29T04:07:35.023Z,100.00
2022-11-29T04:10:18.528Z,100.00
2022-11-29T04:13:18.943Z,100.00
2022-11-29T04:16:11.749Z,100.00
2022-11-29T04:19:26.738Z,100.00
2022-11-29T04:22:18.067Z,100.00
2022-11-29T04:25:19.207Z,100.00
2022-11-29T04:28:11.778Z,100.00
2022-11-29T04:30:49.171Z,100.00
2022-11-29T04:33:49.292Z,100.00
2022-11-29T04:36:49.959Z,100.00
2022-11-29T04:39:32.290Z,100.00
2022-11-29T04:42:25.258Z,100.00
2022-11-29T04:45:11.777Z,100.00
2022-11-29T04:47:56.557Z,100.00
2022-11-29T04:50:40.005Z,100.00
2022-11-29T04:53:28.969Z,100.00
2022-11-29T04:56:07.364Z,100.00
2022-11-29T04:58:42.077Z,100.00
2022-11-29T05:01:19.812Z,100.00
2022-11-29T05:03:57.212Z,100.00
2022-11-29T05:06:33.730Z,100.00
2022-11-29T05:09:12.037Z,99.34
2022-11-29T05:11:56.451Z,99.19
2022-11-29T05:14:37.048Z,99.07
2022-11-29T05:17:32.624Z,98.89
2022-11-29T05:20:09.361Z,98.81
2022-11-29T05:22:43.633Z,99.19
2022-11-29T05:25:41.141Z,100.00
2022-11-29T05:28:17.243Z,100.00
2022-11-29T05:31:19.979Z,100.00
2022-11-29T05:34:06.772Z,100.00
2022-11-29T05:36:42.029Z,100.00
2022-11-29T05:39:36.205Z,100.00
2022-11-29T05:42:18.989Z,100.00
2022-11-29T05:44:52.056Z,100.00
2022-11-29T05:47:31.049Z,100.00
2022-11-29T05:50:06.884Z,100.00
2022-11-29T05:52:46.072Z,100.00
2022-11-29T05:55:26.188Z,100.00
2022-11-29T05:57:59.588Z,100.00
2022-11-29T06:00:30.528Z,100.00
2022-11-29T06:03:04.706Z,100.00
2022-11-29T06:05:39.523Z,100.00
2022-11-29T06:08:14.073Z,100.00
2022-11-29T06:10:57.084Z,100.00
2022-11-29T06:13:37.971Z,100.00
2022-11-29T06:16:27.960Z,100.00
2022-11-29T06:19:30.442Z,100.00
2022-11-29T06:22:13.368Z,99.08
2022-11-29T06:25:03.395Z,99.94
2022-11-29T06:27:52.876Z,100.00
2022-11-29T06:30:23.791Z,100.00
2022-11-29T06:33:01.248Z,100.00
2022-11-29T06:35:40.791Z,100.00
2022-11-29T06:38:18.882Z,100.00
2022-11-29T06:40:47.157Z,100.00
2022-11-29T06:43:15.747Z,100.00
2022-11-29T06:45:50.043Z,100.00
2022-11-29T06:48:24.142Z,100.00
2022-11-29T06:50:59.296Z,100.00
2022-11-29T06:53:40.312Z,100.00
2022-11-29T06:56:20.573Z,100.00
2022-11-29T06:58:58.401Z,100.00
2022-11-29T07:01:37.252Z,99.73
2022-11-29T07:04:21.176Z,100.00
2022-11-29T07:06:48.914Z,100.00
2022-11-29T07:09:20.785Z,100.00
2022-11-29T07:11:49.433Z,99.84
2022-11-29T07:14:17.807Z,100.00
2022-11-29T07:16:57.175Z,100.00
2022-11-29T07:19:35.892Z,100.00
2022-11-29T07:22:10.664Z,100.00
2022-11-29T07:24:56.172Z,99.12
2022-11-29T07:27:32.140Z,100.00
2022-11-29T07:30:11.089Z,100.00
2022-11-29T07:32:52.871Z,100.00
2022-11-29T07:35:33.736Z,100.00
2022-11-29T07:38:13.151Z,99.88
2022-11-29T07:40:48.916Z,98.76
2022-11-29T07:43:36.561Z,98.20
2022-11-29T07:46:04.672Z,100.00
2022-11-29T07:48:32.447Z,100.00
2022-11-29T07:51:01.482Z,100.00
2022-11-29T07:53:30.299Z,100.00
2022-11-29T07:55:59.720Z,100.00
2022-11-29T07:58:27.416Z,100.00
2022-11-29T08:00:55.220Z,100.00
2022-11-29T08:03:23.032Z,100.00
2022-11-29T08:05:50.739Z,100.00
2022-11-29T08:08:18.565Z,100.00
2022-11-29T08:10:46.364Z,100.00
2022-11-29T08:13:15.791Z,100.00
2022-11-29T08:15:47.656Z,100.00
2022-11-29T08:18:15.455Z,100.00
2022-11-29T08:20:44.269Z,100.00
2022-11-29T08:23:14.057Z,100.00
2022-11-29T08:25:42.144Z,100.00
2022-11-29T08:28:10.433Z,100.00
2022-11-29T08:30:39.614Z,100.00
2022-11-29T08:33:07.509Z,100.00
2022-11-29T08:35:36.076Z,100.00
2022-11-29T08:38:04.937Z,100.00
2022-11-29T08:40:32.772Z,99.99
2022-11-29T08:43:00.641Z,99.16
2022-11-29T08:45:28.374Z,100.00
2022-11-29T08:47:57.516Z,99.34
2022-11-29T08:50:25.646Z,99.85
2022-11-29T08:53:10.746Z,99.60
2022-11-29T08:55:43.238Z,99.98
2022-11-29T08:58:13.899Z,99.80
2022-11-29T09:00:44.014Z,98.35
2022-11-29T09:03:27.262Z,99.14
2022-11-29T09:05:55.301Z,99.31
2022-11-29T09:08:23.157Z,98.93
2022-11-29T09:10:50.866Z,98.92
2022-11-29T09:13:19.047Z,98.38
2022-11-29T09:15:46.729Z,98.11
2022-11-29T09:18:15.805Z,97.69
2022-11-29T09:20:44.689Z,98.51
2022-11-29T09:23:13.054Z,99.85
2022-11-29T09:25:40.747Z,97.87
2022-11-29T09:28:08.553Z,98.91
2022-11-29T09:30:38.064Z,97.94
2022-11-29T09:33:05.994Z,97.82
2022-11-29T09:35:35.207Z,96.85
2022-11-29T09:38:03.081Z,97.64
2022-11-29T09:40:38.386Z,97.65
2022-11-29T09:43:18.808Z,95.85
2022-11-29T09:45:50.804Z,93.64
2022-11-29T09:48:36.799Z,94.10
2022-11-29T09:51:17.996Z,93.98
2022-11-29T09:54:01.833Z,93.56
2022-11-29T09:56:36.654Z,95.61
2022-11-29T09:59:10.019Z,96.00
2022-11-29T10:01:42.376Z,95.67
2022-11-29T10:04:15.133Z,96.94
2022-11-29T10:06:49.640Z,97.62
2022-11-29T10:09:23.910Z,98.12
2022-11-29T10:12:01.427Z,98.33
2022-11-29T10:14:35.294Z,99.37
2022-11-29T10:17:08.234Z,96.82
2022-11-29T10:19:39.205Z,97.25
2022-11-29T10:22:18.901Z,97.69
2022-11-29T10:24:49.980Z,97.10
2022-11-29T10:27:23.056Z,99.06
2022-11-29T10:29:51.558Z,99.52
2022-11-29T10:32:21.318Z,98.40
2022-11-29T10:34:49.441Z,97.26
2022-11-29T10:37:20.373Z,97.72
2022-11-29T10:39:51.885Z,97.47
2022-11-29T10:42:45.438Z,98.09
2022-11-29T10:45:18.885Z,96.83
2022-11-29T10:47:47.615Z,97.32
2022-11-29T10:50:20.120Z,96.48
2022-11-29T10:52:49.219Z,97.86
2022-11-29T10:55:19.012Z,98.86
2022-11-29T10:58:10.216Z,98.01
2022-11-29T11:00:52.010Z,96.99
2022-11-29T11:03:28.310Z,96.59
2022-11-29T11:05:59.492Z,96.40
2022-11-29T11:08:29.654Z,97.48
2022-11-29T11:11:01.784Z,96.40
2022-11-29T11:13:32.649Z,97.25
2022-11-29T11:16:09.792Z,96.02
2022-11-29T11:18:38.492Z,97.95
2022-11-29T11:21:10.344Z,96.21
2022-11-29T11:23:46.527Z,98.16
2022-11-29T11:26:15.973Z,97.75
2022-11-29T11:28:50.005Z,97.99
2022-11-29T11:31:31.291Z,97.07
2022-11-29T11:34:24.959Z,98.46
2022-11-29T11:36:53.477Z,95.85
2022-11-29T11:39:24.270Z,94.91
2022-11-29T11:42:10.590Z,92.95
2022-11-29T11:44:48.670Z,93.85
2022-11-29T11:47:19.367Z,95.74
2022-11-29T11:49:50.191Z,96.78
2022-11-29T11:52:22.091Z,96.81
2022-11-29T11:54:54.425Z,95.90
2022-11-29T11:57:23.676Z,94.97
2022-11-29T11:59:53.599Z,93.93
2022-11-29T12:02:30.011Z,91.30
2022-11-29T12:05:01.672Z,92.45
2022-11-29T12:08:06.335Z,90.04
2022-11-29T12:10:28.035Z,91.46
2022-11-29T12:12:56.851Z,90.61
2022-11-29T12:15:29.502Z,91.00
2022-11-29T12:18:02.617Z,89.94
2022-11-29T12:20:33.803Z,91.21
2022-11-29T12:23:20.483Z,90.75
2022-11-29T12:25:54.597Z,90.87
2022-11-29T12:28:26.304Z,88.78
2022-11-29T12:30:59.942Z,89.67
2022-11-29T12:33:38.621Z,86.88
2022-11-29T12:36:20.570Z,86.40
2022-11-29T12:39:00.837Z,86.01
2022-11-29T12:41:41.065Z,87.05
2022-11-29T12:44:23.096Z,87.39
2022-11-29T12:47:34.133Z,86.47
2022-11-29T12:50:05.330Z,85.48
2022-11-29T12:52:42.097Z,86.55
2022-11-29T12:55:22.099Z,84.36
2022-11-29T12:58:00.733Z,86.10
2022-11-29T13:00:33.930Z,83.11
2022-11-29T13:03:13.994Z,84.39
2022-11-29T13:05:56.970Z,85.26
2022-11-29T13:08:46.984Z,85.15
2022-11-29T13:11:21.037Z,82.31
2022-11-29T13:14:13.772Z,80.56
2022-11-29T13:16:57.181Z,83.58
2022-11-29T13:19:30.347Z,84.29
2022-11-29T13:22:05.763Z,81.91
2022-11-29T13:24:42.713Z,83.56
2022-11-29T13:27:17.227Z,83.54
2022-11-29T13:29:47.368Z,85.20
2022-11-29T13:32:32.511Z,80.50
2022-11-29T13:35:06.890Z,83.92
2022-11-29T13:37:39.936Z,82.69
2022-11-29T13:40:22.791Z,77.50
2022-11-29T13:43:01.156Z,80.05
2022-11-29T13:45:38.543Z,79.91
2022-11-29T13:48:34.592Z,78.29
2022-11-29T13:51:28.438Z,75.60
2022-11-29T13:53:57.439Z,77.46
2022-11-29T13:56:36.830Z,79.21
2022-11-29T13:59:13.730Z,80.96
2022-11-29T14:01:48.609Z,76.93
2022-11-29T14:04:25.963Z,76.00
2022-11-29T14:07:05.389Z,75.67
2022-11-29T14:09:37.528Z,82.87
2022-11-29T14:12:19.086Z,78.81
2022-11-29T14:14:53.426Z,82.64
2022-11-29T14:17:47.600Z,78.83
2022-11-29T14:20:48.658Z,78.76
2022-11-29T14:23:31.400Z,78.83
2022-11-29T14:26:28.646Z,77.36
2022-11-29T14:28:57.001Z,77.58
2022-11-29T14:31:56.466Z,75.13
2022-11-29T14:34:45.928Z,76.13
2022-11-29T14:37:52.459Z,75.77
2022-11-29T14:40:28.610Z,74.30
2022-11-29T14:42:56.436Z,79.73
2022-11-29T14:45:28.244Z,80.09
2022-11-29T14:47:56.808Z,82.67
2022-11-29T14:50:37.601Z,79.53
2022-11-29T14:53:06.878Z,75.38
2022-11-29T14:55:36.811Z,75.38
2022-11-29T14:58:19.279Z,80.34
2022-11-29T15:01:10.883Z,77.47
2022-11-29T15:03:48.848Z,76.10
2022-11-29T15:06:25.760Z,76.14
2022-11-29T15:09:03.809Z,77.42
2022-11-29T15:11:44.289Z,77.16
2022-11-29T15:14:20.941Z,78.54
2022-11-29T15:17:17.362Z,75.33
2022-11-29T15:19:59.344Z,74.81
2022-11-29T15:22:32.628Z,76.62
2022-11-29T15:25:03.340Z,75.07
2022-11-29T15:27:31.233Z,76.10
2022-11-29T15:29:59.877Z,77.41
2022-11-29T15:32:31.058Z,77.64
2022-11-29T15:34:59.828Z,76.93
2022-11-29T15:37:44.545Z,78.26
2022-11-29T15:40:15.997Z,78.13
2022-11-29T15:42:45.872Z,78.12
2022-11-29T15:45:28.795Z,78.62
2022-11-29T15:48:11.308Z,82.74
2022-11-29T15:50:41.856Z,85.63
2022-11-29T15:53:19.272Z,82.95
2022-11-29T15:55:49.848Z,85.15
2022-11-29T15:58:19.074Z,84.59
2022-11-29T16:00:49.864Z,84.05
2022-11-29T16:03:22.635Z,84.94
2022-11-29T16:05:57.034Z,86.24
2022-11-29T16:08:27.628Z,88.04
2022-11-29T16:10:55.776Z,88.21
2022-11-29T16:13:40.613Z,88.66
2022-11-29T16:16:14.323Z,87.87
2022-11-29T16:18:44.856Z,88.50
2022-11-29T16:21:28.835Z,89.55
2022-11-29T16:23:59.081Z,90.75
2022-11-29T16:26:30.372Z,91.49
2022-11-29T16:28:58.360Z,91.94
2022-11-29T16:31:34.182Z,90.73
2022-11-29T16:34:08.992Z,90.65
2022-11-29T16:36:36.958Z,91.41
2022-11-29T16:39:08.908Z,93.80
2022-11-29T16:41:39.009Z,93.65
2022-11-29T16:44:27.752Z,94.06
2022-11-29T16:47:12.191Z,92.48
2022-11-29T16:49:39.892Z,93.14
2022-11-29T16:52:24.815Z,93.28
2022-11-29T16:54:53.999Z,93.31
2022-11-29T16:57:22.464Z,92.98
2022-11-29T16:59:50.465Z,93.83
2022-11-29T17:02:18.550Z,93.30
2022-11-29T17:04:46.567Z,93.70
2022-11-29T17:07:18.107Z,93.96
2022-11-29T17:09:45.969Z,93.13
2022-11-29T17:12:15.519Z,92.73
2022-11-29T17:14:43.872Z,92.86
2022-11-29T17:17:15.131Z,93.85
2022-11-29T17:19:42.866Z,93.05
2022-11-29T17:22:10.637Z,93.02
2022-11-29T17:24:42.323Z,93.12
2022-11-29T17:27:15.536Z,94.68
2022-11-29T17:29:43.331Z,94.97
2022-11-29T17:32:11.054Z,95.32
2022-11-29T17:34:38.926Z,94.34
2022-11-29T17:37:06.612Z,93.01
2022-11-29T17:39:34.492Z,95.42
2022-11-29T17:42:02.215Z,96.16
2022-11-29T17:44:33.913Z,97.22
2022-11-29T17:47:01.896Z,97.08
2022-11-29T17:49:29.720Z,96.79
2022-11-29T17:51:57.608Z,96.90
2022-11-29T17:54:25.697Z,96.15
2022-11-29T17:56:53.600Z,97.03
2022-11-29T17:59:21.287Z,96.71
2022-11-29T18:01:50.488Z,95.35
2022-11-29T18:04:18.462Z,95.44
2022-11-29T18:06:49.808Z,93.90
2022-11-29T18:09:18.651Z,93.01
2022-11-29T18:11:49.406Z,95.06
2022-11-29T18:14:20.347Z,95.18
2022-11-29T18:16:48.292Z,95.59
2022-11-29T18:19:19.333Z,95.89
2022-11-29T18:21:47.877Z,94.99
2022-11-29T18:24:16.243Z,94.04
2022-11-29T18:26:44.560Z,93.13
2022-11-29T18:29:12.371Z,94.12
2022-11-29T18:31:42.377Z,95.14
2022-11-29T18:34:12.890Z,94.48
2022-11-29T18:36:44.012Z,94.49
2022-11-29T18:39:14.907Z,96.11
2022-11-29T18:41:43.751Z,96.35
2022-11-29T18:44:13.713Z,94.96
2022-11-29T18:46:43.840Z,94.67
2022-11-29T18:49:13.189Z,94.06
2022-11-29T18:51:44.718Z,94.11
2022-11-29T18:54:13.823Z,94.07
2022-11-29T18:56:42.330Z,95.68
2022-11-29T18:59:11.239Z,95.87
2022-11-29T19:01:42.430Z,94.98
2022-11-29T19:04:12.491Z,95.76
2022-11-29T19:06:40.737Z,95.80
2022-11-29T19:09:13.272Z,97.42
2022-11-29T19:11:41.218Z,94.91
2022-11-29T19:14:12.377Z,94.11
2022-11-29T19:16:42.439Z,94.98
2022-11-29T19:19:10.932Z,95.35
2022-11-29T19:21:40.126Z,95.48
2022-11-29T19:24:14.837Z,94.41
2022-11-29T19:26:44.299Z,93.60
2022-11-29T19:29:12.676Z,91.34
2022-11-29T19:31:40.515Z,93.43
2022-11-29T19:34:08.268Z,93.58
2022-11-29T19:36:37.296Z,93.25
2022-11-29T19:39:05.660Z,95.03
2022-11-29T19:41:36.528Z,96.47
2022-11-29T19:44:06.623Z,97.36
2022-11-29T19:46:36.520Z,94.38
2022-11-29T19:49:05.663Z,95.21
2022-11-29T19:51:33.894Z,97.41
2022-11-29T19:54:03.308Z,95.27
2022-11-29T19:56:32.312Z,96.06
2022-11-29T19:59:01.508Z,96.15
2022-11-29T20:01:39.358Z,97.22
2022-11-29T20:04:09.561Z,93.61
2022-11-29T20:06:37.436Z,95.43
2022-11-29T20:09:06.354Z,95.05
2022-11-29T20:11:34.149Z,95.63
2022-11-29T20:14:05.339Z,95.80
2022-11-29T20:16:33.969Z,96.79
2022-11-29T20:19:02.100Z,97.22
2022-11-29T20:21:32.224Z,97.07
2022-11-29T20:24:02.204Z,97.26
2022-11-29T20:26:31.826Z,95.83
2022-11-29T20:28:59.856Z,96.42
2022-11-29T20:31:29.537Z,97.68
2022-11-29T20:33:58.291Z,97.17
2022-11-29T20:36:40.882Z,95.91
2022-11-29T20:39:19.134Z,94.89
2022-11-29T20:41:57.826Z,96.14
2022-11-29T20:44:37.588Z,94.84
2022-11-29T20:47:15.262Z,95.72
2022-11-29T20:49:43.519Z,95.80
2022-11-29T20:52:18.305Z,95.42
2022-11-29T20:54:46.161Z,97.49
2022-11-29T20:57:14.069Z,95.69
2022-11-29T20:59:41.808Z,97.17
2022-11-29T21:02:10.887Z,95.74
2022-11-29T21:04:38.608Z,95.91
2022-11-29T21:07:06.381Z,98.22
2022-11-29T21:09:34.104Z,98.37
2022-11-29T21:12:02.465Z,97.27
2022-11-29T21:14:30.977Z,97.68
2022-11-29T21:16:59.247Z,96.92
2022-11-29T21:19:29.541Z,97.73
2022-11-29T21:22:06.363Z,98.00
2022-11-29T21:24:45.986Z,98.42
2022-11-29T21:27:18.650Z,97.14
2022-11-29T21:29:47.036Z,95.57
2022-11-29T21:32:22.180Z,93.47
2022-11-29T21:34:51.440Z,95.49
2022-11-29T21:37:21.675Z,95.83
2022-11-29T21:39:52.202Z,94.06
2022-11-29T21:42:20.081Z,96.44
2022-11-29T21:44:48.213Z,96.38
2022-11-29T21:47:16.340Z,93.36
2022-11-29T21:49:44.036Z,94.06
2022-11-29T21:52:16.507Z,94.72
2022-11-29T21:54:48.952Z,96.00
2022-11-29T21:57:16.873Z,97.15
2022-11-29T21:59:44.582Z,93.62
2022-11-29T22:02:12.495Z,92.05
2022-11-29T22:04:40.405Z,92.12
2022-11-29T22:07:08.136Z,92.78
2022-11-29T22:09:37.369Z,95.55
2022-11-29T22:12:25.762Z,96.00
2022-11-29T22:14:53.068Z,91.50
2022-11-29T22:17:20.851Z,92.12
2022-11-29T22:19:48.668Z,93.13
2022-11-29T22:22:16.483Z,92.10
2022-11-29T22:24:45.936Z,92.09
2022-11-29T22:27:13.810Z,93.85
2022-11-29T22:29:41.522Z,96.58
2022-11-29T22:32:09.278Z,93.84
2022-11-29T22:34:37.019Z,93.35
2022-11-29T22:37:04.707Z,94.31
2022-11-29T22:39:32.531Z,94.02
2022-11-29T22:42:01.600Z,92.86
2022-11-29T22:44:30.114Z,95.17
2022-11-29T22:46:58.052Z,95.35
2022-11-29T22:49:26.032Z,94.33
2022-11-29T22:51:54.931Z,93.74
2022-11-29T22:54:22.757Z,95.02
2022-11-29T22:56:50.454Z,96.04
2022-11-29T22:59:19.531Z,95.42
2022-11-29T23:01:47.327Z,99.57
2022-11-29T23:04:15.657Z,100.00
2022-11-29T23:06:44.738Z,100.00
2022-11-29T23:09:15.956Z,100.00
2022-11-29T23:11:44.299Z,100.00
2022-11-29T23:14:12.556Z,100.00
2022-11-29T23:16:41.885Z,100.00
2022-11-29T23:19:10.340Z,100.00
2022-11-29T23:21:40.001Z,100.00
2022-11-29T23:24:08.640Z,100.00
2022-11-29T23:26:40.114Z,100.00
2022-11-29T23:29:10.037Z,100.00
2022-11-29T23:31:38.163Z,100.00
2022-11-29T23:34:07.675Z,100.00
2022-11-29T23:36:36.486Z,100.00
2022-11-29T23:39:04.256Z,100.00
2022-11-29T23:41:32.007Z,100.00
2022-11-29T23:43:59.954Z,100.00
2022-11-29T23:46:27.659Z,100.00
2022-11-29T23:48:55.572Z,100.00
2022-11-29T23:51:24.729Z,100.00
2022-11-29T23:53:53.039Z,100.00
2022-11-29T23:56:22.010Z,100.00
2022-11-29T23:58:50.279Z,100.00
